This is the latest recevied weather packets stored in our database for station/object GW6922. If no packets are shown the sender has not sent any weather packets the latest 10 day(s).
| Time | Temp. | Humidity | Pressure | Rain* | Wind** | Luminosity | Snow |
|---|---|---|---|---|---|---|---|
| 1777068584 | 20.56° C | 47% | 1003.5 hPa | 0 mm | - | - | - |
| 1777067339 | 20.56° C | 47% | 1003.6 hPa | 0 mm | - | - | - |
| 1777064889 | 21.11° C | 46% | 1004 hPa | 0 mm | - | - | - |
| 1777060016 | 20° C | 50% | 1003.9 hPa | 0 mm | - | - | - |
| 1777050805 | 17.22° C | 65% | 1003.5 hPa | 0 mm | - | - | - |
| 1777050199 | 16.67° C | 67% | 1003.6 hPa | 0 mm | - | - | - |
| 1777048975 | 16.11° C | 71% | 1003.8 hPa | 0 mm | - | - | - |
| 1777048364 | 15.56° C | 72% | 1003.8 hPa | 0 mm | - | - | - |
| 1777047134 | 15.56° C | 77% | 1003.5 hPa | 0 mm | - | - | - |
| 1777045885 | 15° C | 77% | 1003.5 hPa | 0 mm | - | - | - |
| 1777043399 | 14.44° C | 80% | 1003 hPa | 0 mm | - | - | - |
| 1777040929 | 13.89° C | 81% | 1002.6 hPa | 0 mm | - | - | - |
| 1777039079 | 14.44° C | 85% | 1002.5 hPa | 0 mm | - | - | - |
| 1777018649 | 15.56° C | 87% | 1000 hPa | 0 mm | - | - | - |
| 1777014329 | 16.11° C | 84% | 1000.2 hPa | 0 mm | - | - | - |
| 1777010639 | 16.11° C | 84% | 1000.3 hPa | 0.51 mm | - | - | - |
| 1777008150 | 18.89° C | 68% | 1000.3 hPa | 0 mm | - | - | - |
| 1777006929 | 22.78° C | 63% | 998.3 hPa | 0 mm | - | - | - |
| 1777005089 | 22.78° C | 62% | 997.9 hPa | 0 mm | - | - | - |
| 1776998309 | 24.44° C | 54% | 997.4 hPa | 0 mm | - | - | - |
| 1776995879 | 24.44° C | 53% | 996.8 hPa | 0 mm | - | - | - |
| 1776990929 | 25.56° C | 49% | 996.5 hPa | 0 mm | - | - | - |
| 1776989069 | 26.67° C | 46% | 996.5 hPa | 0 mm | - | - | - |
* Rain latest hour (hover to see other rain measurements)
** Current wind speed in m/s (hover to see current wind gust speed)